createdAt,value
2018-07-07T00:01:36.023Z,99367.05
2018-07-07T00:04:06.738Z,99367.80
2018-07-07T00:06:37.817Z,99366.23
2018-07-07T00:09:08.613Z,99373.55
2018-07-07T00:11:39.418Z,99376.14
2018-07-07T00:14:10.077Z,99374.27
2018-07-07T00:16:40.864Z,99375.61
2018-07-07T00:19:11.577Z,99385.25
2018-07-07T00:21:42.455Z,99388.63
2018-07-07T00:24:13.130Z,99394.14
2018-07-07T00:26:44.006Z,99397.28
2018-07-07T00:29:14.661Z,99404.90
2018-07-07T00:31:45.465Z,99398.85
2018-07-07T00:34:16.118Z,99400.38
2018-07-07T00:36:46.886Z,99392.55
2018-07-07T00:39:17.037Z,99393.84
2018-07-07T00:41:47.980Z,99387.56
2018-07-07T00:44:18.697Z,99383.09
2018-07-07T00:46:49.673Z,99383.39
2018-07-07T00:49:20.318Z,99391.74
2018-07-07T00:51:51.053Z,99390.22
2018-07-07T00:54:21.778Z,99396.72
2018-07-07T00:56:52.605Z,99385.69
2018-07-07T00:59:23.325Z,99384.68
2018-07-07T01:01:54.276Z,99380.28
2018-07-07T01:04:24.721Z,99380.29
2018-07-07T01:06:55.756Z,99378.45
2018-07-07T01:09:26.435Z,99372.43
2018-07-07T01:11:57.218Z,99374.00
2018-07-07T01:14:27.857Z,99369.56
2018-07-07T01:16:58.525Z,99372.19
2018-07-07T01:19:28.670Z,99371.13
2018-07-07T01:21:59.351Z,99371.38
2018-07-07T01:24:29.894Z,99364.85
2018-07-07T01:27:00.622Z,99364.33
2018-07-07T01:29:31.256Z,99362.48
2018-07-07T01:32:02.254Z,99366.20
2018-07-07T01:34:32.951Z,99357.05
2018-07-07T01:37:03.874Z,99352.10
2018-07-07T01:39:34.152Z,99348.16
2018-07-07T01:42:05.215Z,99347.10
2018-07-07T01:44:35.965Z,99341.35
2018-07-07T01:47:06.601Z,99342.14
2018-07-07T01:49:36.614Z,99343.20
2018-07-07T01:52:07.686Z,99342.19
2018-07-07T01:54:38.355Z,99344.80
2018-07-07T01:57:09.049Z,99349.54
2018-07-07T01:59:39.773Z,99345.35
2018-07-07T02:02:10.450Z,99349.02
2018-07-07T02:04:41.090Z,99350.58
2018-07-07T02:07:11.794Z,99356.34
2018-07-07T02:09:42.510Z,99356.59
2018-07-07T02:12:13.225Z,99358.16
2018-07-07T02:14:43.924Z,99357.89
2018-07-07T02:17:15.566Z,99354.49
2018-07-07T02:19:46.038Z,99358.41
2018-07-07T02:22:24.962Z,99359.99
2018-07-07T02:24:55.557Z,99371.92
2018-07-07T02:27:26.265Z,99362.86
2018-07-07T02:29:56.893Z,99363.90
2018-07-07T02:32:27.608Z,99368.34
2018-07-07T02:34:58.302Z,99363.39
2018-07-07T02:37:29.210Z,99361.56
2018-07-07T02:39:59.901Z,99365.21
2018-07-07T02:42:30.537Z,99373.03
2018-07-07T02:45:00.624Z,99377.91
2018-07-07T02:47:31.377Z,99381.05
2018-07-07T02:50:02.127Z,99383.73
2018-07-07T02:52:32.902Z,99385.75
2018-07-07T02:55:03.570Z,99390.44
2018-07-07T02:57:34.566Z,99389.39
2018-07-07T03:00:05.221Z,99389.98
2018-07-07T03:02:35.897Z,99384.27
2018-07-07T03:05:06.722Z,99381.30
2018-07-07T03:07:37.347Z,99383.89
2018-07-07T03:10:08.314Z,99378.70
2018-07-07T03:12:39.173Z,99379.22
2018-07-07T03:15:09.906Z,99380.27
2018-07-07T03:17:40.603Z,99384.44
2018-07-07T03:20:11.334Z,99392.91
2018-07-07T03:22:42.287Z,99392.94
2018-07-07T03:25:13.053Z,99402.60
2018-07-07T03:27:44.239Z,99404.80
2018-07-07T03:30:14.825Z,99400.44
2018-07-07T03:32:45.525Z,99393.42
2018-07-07T03:35:16.052Z,99394.44
2018-07-07T03:37:46.940Z,99394.45
2018-07-07T03:40:17.133Z,99383.71
2018-07-07T03:42:48.037Z,99389.41
2018-07-07T03:45:18.742Z,99388.31
2018-07-07T03:47:49.485Z,99393.55
2018-07-07T03:50:20.045Z,99386.20
2018-07-07T03:52:50.825Z,99390.36
2018-07-07T03:55:21.570Z,99387.16
2018-07-07T03:57:52.453Z,99378.29
2018-07-07T04:00:23.118Z,99373.12
2018-07-07T04:02:54.058Z,99362.73
2018-07-07T04:05:24.156Z,99361.31
2018-07-07T04:07:54.750Z,99366.34
2018-07-07T04:10:25.553Z,99375.25
2018-07-07T04:12:55.980Z,99381.44
2018-07-07T04:15:26.679Z,99383.61
2018-07-07T04:17:57.305Z,99381.77
2018-07-07T04:20:27.983Z,99381.41
2018-07-07T04:22:58.730Z,99379.66
2018-07-07T04:25:29.481Z,99375.33
2018-07-07T04:28:00.333Z,99370.20
2018-07-07T04:30:30.917Z,99370.98
2018-07-07T04:33:01.626Z,99369.88
2018-07-07T04:35:31.628Z,99368.28
2018-07-07T04:38:02.697Z,99380.17
2018-07-07T04:40:32.789Z,99379.62
2018-07-07T04:43:03.690Z,99379.38
2018-07-07T04:45:34.459Z,99376.83
2018-07-07T04:48:05.033Z,99374.73
2018-07-07T04:50:35.546Z,99374.86
2018-07-07T04:53:06.008Z,99369.53
2018-07-07T04:55:36.577Z,99377.89
2018-07-07T04:58:13.880Z,99375.37
2018-07-07T05:00:44.558Z,99378.64
2018-07-07T05:03:15.576Z,99378.90
2018-07-07T05:05:45.773Z,99377.39
2018-07-07T05:08:16.509Z,99382.44
2018-07-07T05:10:47.204Z,99387.14
2018-07-07T05:13:18.181Z,99389.72
2018-07-07T05:15:48.880Z,99393.34
2018-07-07T05:18:19.613Z,99402.86
2018-07-07T05:20:50.297Z,99396.69
2018-07-07T05:23:21.258Z,99394.05
2018-07-07T05:25:51.810Z,99393.93
2018-07-07T05:28:22.876Z,99394.16
2018-07-07T05:30:53.645Z,99408.56
2018-07-07T05:33:24.684Z,99409.30
2018-07-07T05:35:55.320Z,99405.78
2018-07-07T05:38:25.969Z,99402.86
2018-07-07T05:40:56.698Z,99405.80
2018-07-07T05:43:27.490Z,99402.58
2018-07-07T05:45:57.492Z,99398.75
2018-07-07T05:48:28.361Z,99400.12
2018-07-07T05:50:58.554Z,99403.52
2018-07-07T05:53:29.517Z,99402.83
2018-07-07T05:55:59.664Z,99408.44
2018-07-07T05:58:30.338Z,99410.38
2018-07-07T06:01:00.909Z,99405.50
2018-07-07T06:03:31.702Z,99404.39
2018-07-07T06:06:02.233Z,99397.47
2018-07-07T06:08:32.961Z,99397.60
2018-07-07T06:11:03.933Z,99391.62
2018-07-07T06:13:34.007Z,99396.67
2018-07-07T06:16:04.741Z,99394.95
2018-07-07T06:18:35.450Z,99396.28
2018-07-07T06:21:06.270Z,99390.16
2018-07-07T06:23:36.881Z,99390.19
2018-07-07T06:26:07.089Z,99381.99
2018-07-07T06:28:37.934Z,99385.70
2018-07-07T06:31:08.865Z,99385.75
2018-07-07T06:33:40.077Z,99380.98
2018-07-07T06:36:10.713Z,99384.30
2018-07-07T06:38:41.403Z,99382.52
2018-07-07T06:41:12.182Z,99385.45
2018-07-07T06:43:43.166Z,99385.10
2018-07-07T06:46:14.493Z,99378.86
2018-07-07T06:48:44.862Z,99386.13
2018-07-07T06:51:15.465Z,99378.30
2018-07-07T06:53:46.407Z,99369.67
2018-07-07T06:56:16.465Z,99380.44
2018-07-07T06:58:46.965Z,99373.77
2018-07-07T07:01:17.642Z,99374.98
2018-07-07T07:03:48.259Z,99374.77
2018-07-07T07:06:18.868Z,99376.09
2018-07-07T07:08:49.554Z,99373.30
2018-07-07T07:11:20.474Z,99372.78
2018-07-07T07:13:50.602Z,99369.02
2018-07-07T07:16:21.741Z,99368.63
2018-07-07T07:18:52.010Z,99366.28
2018-07-07T07:21:22.697Z,99367.13
2018-07-07T07:23:53.543Z,99367.36
2018-07-07T07:26:24.590Z,99371.03
2018-07-07T07:28:55.934Z,99368.13
2018-07-07T07:31:26.674Z,99362.34
2018-07-07T07:33:57.181Z,99366.33
2018-07-07T07:36:47.477Z,99362.94
2018-07-07T07:39:17.801Z,99362.72
2018-07-07T07:41:48.079Z,99359.43
2018-07-07T07:44:18.619Z,99359.69
2018-07-07T07:46:49.350Z,99360.27
2018-07-07T07:49:19.990Z,99359.38
2018-07-07T07:51:50.804Z,99359.81
2018-07-07T07:54:21.444Z,99352.75
2018-07-07T07:56:52.133Z,99348.20
2018-07-07T07:59:22.870Z,99353.45
2018-07-07T08:01:53.634Z,99345.87
2018-07-07T08:04:24.122Z,99337.42
2018-07-07T08:06:54.364Z,99334.78
2018-07-07T08:09:25.010Z,99335.41
2018-07-07T08:11:55.705Z,99335.67
2018-07-07T08:14:26.590Z,99330.94
2018-07-07T08:16:57.361Z,99327.03
2018-07-07T08:19:28.579Z,99326.02
2018-07-07T08:21:59.617Z,99323.12
2018-07-07T08:24:30.298Z,99314.70
2018-07-07T08:27:01.310Z,99312.66
2018-07-07T08:29:32.074Z,99306.34
2018-07-07T08:32:02.893Z,99298.64
2018-07-07T08:34:33.037Z,99294.78
2018-07-07T08:37:03.309Z,99293.91
2018-07-07T08:39:34.135Z,99291.05
2018-07-07T08:42:04.993Z,99281.88
2018-07-07T08:44:35.220Z,99284.18
2018-07-07T08:47:05.937Z,99275.78
2018-07-07T08:49:36.477Z,99279.88
2018-07-07T08:52:07.254Z,99289.29
2018-07-07T08:54:37.897Z,99283.80
2018-07-07T08:57:08.601Z,99272.45
2018-07-07T08:59:39.285Z,99280.19
2018-07-07T09:02:10.168Z,99275.16
2018-07-07T09:04:40.417Z,99271.82
2018-07-07T09:07:11.162Z,99266.74
2018-07-07T09:09:41.829Z,99265.44
2018-07-07T09:12:12.642Z,99264.06
2018-07-07T09:14:43.486Z,99263.14
2018-07-07T09:17:14.082Z,99262.72
2018-07-07T09:19:44.753Z,99255.89
2018-07-07T09:22:15.620Z,99263.33
2018-07-07T09:24:45.884Z,99254.77
2018-07-07T09:27:16.698Z,99250.78
2018-07-07T09:29:47.313Z,99262.94
2018-07-07T09:32:18.373Z,99257.50
2018-07-07T09:34:49.144Z,99255.07
2018-07-07T09:37:20.038Z,99242.98
2018-07-07T09:39:50.816Z,99248.34
2018-07-07T09:42:22.001Z,99246.08
2018-07-07T09:44:52.019Z,99239.00
2018-07-07T09:47:22.821Z,99250.91
2018-07-07T09:49:53.547Z,99244.79
2018-07-07T09:52:24.056Z,99242.45
2018-07-07T09:54:54.626Z,99240.00
2018-07-07T09:57:25.481Z,99242.13
2018-07-07T09:59:56.202Z,99241.05
2018-07-07T10:02:27.125Z,99240.61
2018-07-07T10:04:57.753Z,99241.00
2018-07-07T10:07:28.813Z,99229.21
2018-07-07T10:09:59.509Z,99227.08
2018-07-07T10:12:30.149Z,99235.39
2018-07-07T10:15:00.885Z,99230.98
2018-07-07T10:17:31.677Z,99235.94
2018-07-07T10:20:02.377Z,99230.92
2018-07-07T10:22:33.327Z,99215.35
2018-07-07T10:25:04.061Z,99210.23
2018-07-07T10:27:34.108Z,99213.94
2018-07-07T10:30:04.738Z,99212.09
2018-07-07T10:32:35.513Z,99210.20
2018-07-07T10:35:06.132Z,99206.13
2018-07-07T10:37:37.022Z,99201.08
2018-07-07T10:40:07.627Z,99194.98
2018-07-07T10:42:38.504Z,99196.11
2018-07-07T10:45:09.173Z,99194.47
2018-07-07T10:47:39.866Z,99193.14
2018-07-07T10:50:10.537Z,99187.53
2018-07-07T10:52:41.382Z,99192.37
2018-07-07T10:55:11.929Z,99187.64
2018-07-07T10:57:42.895Z,99194.48
2018-07-07T11:00:13.611Z,99193.86
2018-07-07T11:02:44.197Z,99193.53
2018-07-07T11:05:14.830Z,99192.50
2018-07-07T11:07:45.501Z,99194.73
2018-07-07T11:10:15.485Z,99194.32
2018-07-07T11:12:46.003Z,99194.47
2018-07-07T11:15:16.614Z,99194.64
2018-07-07T11:17:47.526Z,99197.17
2018-07-07T11:20:18.212Z,99201.00
2018-07-07T11:22:49.040Z,99192.55
2018-07-07T11:25:19.542Z,99194.51
2018-07-07T11:27:50.249Z,99189.41
2018-07-07T11:30:20.393Z,99189.16
2018-07-07T11:32:51.223Z,99193.03
2018-07-07T11:35:21.982Z,99198.72
2018-07-07T11:37:53.030Z,99212.47
2018-07-07T11:40:23.898Z,99218.98
2018-07-07T11:42:54.705Z,99226.91
2018-07-07T11:45:25.377Z,99237.19
2018-07-07T11:47:56.149Z,99245.99
2018-07-07T11:50:26.256Z,99263.91
2018-07-07T11:52:56.398Z,99278.17
2018-07-07T11:55:26.585Z,99293.95
2018-07-07T11:57:57.122Z,99308.83
2018-07-07T12:00:27.803Z,99304.75
2018-07-07T12:02:58.825Z,99307.07
2018-07-07T12:05:29.422Z,99290.81
2018-07-07T12:08:13.672Z,99282.97
2018-07-07T12:10:30.954Z,99276.90
2018-07-07T12:13:01.801Z,99267.92
2018-07-07T12:15:32.431Z,99258.86
2018-07-07T12:18:03.273Z,99271.75
2018-07-07T12:20:33.946Z,99278.00
2018-07-07T12:23:04.878Z,99282.91
2018-07-07T12:25:35.549Z,99287.63
2018-07-07T12:28:06.205Z,99289.05
2018-07-07T12:30:36.954Z,99289.50
2018-07-07T12:33:07.666Z,99296.02
2018-07-07T12:35:38.358Z,99293.06
2018-07-07T12:38:09.139Z,99315.42
2018-07-07T12:40:39.852Z,99318.67
2018-07-07T12:43:10.633Z,99303.23
2018-07-07T12:45:41.416Z,99292.06
2018-07-07T12:48:12.264Z,99298.41
2018-07-07T12:50:42.948Z,99305.34
2018-07-07T12:53:13.729Z,99301.11
2018-07-07T12:55:44.330Z,99303.52
2018-07-07T12:58:15.018Z,99325.55
2018-07-07T13:00:45.721Z,99362.56
2018-07-07T13:03:16.417Z,99394.91
2018-07-07T13:05:46.461Z,99410.32
2018-07-07T13:08:17.050Z,99392.30
2018-07-07T13:10:47.722Z,99368.61
2018-07-07T13:13:18.497Z,99373.55
2018-07-07T13:15:49.046Z,99371.73
2018-07-07T13:18:19.833Z,99391.58
2018-07-07T13:20:50.598Z,99418.72
2018-07-07T13:23:21.269Z,99436.83
2018-07-07T13:25:51.517Z,99460.61
2018-07-07T13:28:22.372Z,99468.59
2018-07-07T13:30:53.110Z,99482.52
2018-07-07T13:33:24.037Z,99488.00
2018-07-07T13:35:55.309Z,99497.17
2018-07-07T13:38:26.242Z,99495.84
2018-07-07T13:40:56.876Z,99487.62
2018-07-07T13:43:27.695Z,99492.01
2018-07-07T13:45:58.311Z,99501.19
2018-07-07T13:48:29.097Z,99501.11
2018-07-07T13:50:59.855Z,99504.14
2018-07-07T13:53:30.589Z,99507.65
2018-07-07T13:56:01.490Z,99513.59
2018-07-07T13:58:32.317Z,99513.44
2018-07-07T14:01:02.862Z,99504.77
2018-07-07T14:03:34.900Z,99482.81
2018-07-07T14:06:05.618Z,99474.67
2018-07-07T14:08:36.719Z,99474.59
2018-07-07T14:11:07.965Z,99470.36
2018-07-07T14:13:38.321Z,99461.84
2018-07-07T14:16:09.126Z,99463.59
2018-07-07T14:18:39.911Z,99461.78
2018-07-07T14:21:10.617Z,99458.20
2018-07-07T14:23:41.653Z,99449.14
2018-07-07T14:26:12.241Z,99447.60
2018-07-07T14:28:42.989Z,99443.30
2018-07-07T14:31:12.982Z,99441.45
2018-07-07T14:33:43.788Z,99446.70
2018-07-07T14:36:14.433Z,99443.59
2018-07-07T14:38:45.121Z,99435.73
2018-07-07T14:41:21.200Z,99426.08
2018-07-07T14:43:58.769Z,99420.31
2018-07-07T14:46:29.417Z,99412.23
2018-07-07T14:49:00.324Z,99408.08
2018-07-07T14:51:30.578Z,99405.67
2018-07-07T14:54:01.578Z,99412.75
2018-07-07T14:56:32.279Z,99409.34
2018-07-07T14:59:03.258Z,99403.61
2018-07-07T15:01:33.951Z,99410.11
2018-07-07T15:04:04.809Z,99401.78
2018-07-07T15:06:35.569Z,99397.83
2018-07-07T15:09:06.565Z,99393.95
2018-07-07T15:11:37.192Z,99394.45
2018-07-07T15:14:08.270Z,99387.09
2018-07-07T15:16:38.940Z,99384.48
2018-07-07T15:19:09.573Z,99383.41
2018-07-07T15:21:40.234Z,99391.53
2018-07-07T15:24:11.067Z,99392.86
2018-07-07T15:26:41.695Z,99383.98
2018-07-07T15:29:12.473Z,99388.45
2018-07-07T15:31:42.754Z,99392.91
2018-07-07T15:34:13.905Z,99383.96
2018-07-07T15:36:44.533Z,99380.59
2018-07-07T15:39:15.306Z,99380.03
2018-07-07T15:41:46.334Z,99374.50
2018-07-07T15:44:16.722Z,99368.27
2018-07-07T15:46:47.414Z,99366.56
2018-07-07T15:49:18.253Z,99362.00
2018-07-07T15:51:48.959Z,99360.96
2018-07-07T15:54:20.091Z,99363.30
2018-07-07T15:56:50.794Z,99370.28
2018-07-07T15:59:21.650Z,99370.60
2018-07-07T16:01:52.210Z,99374.51
2018-07-07T16:04:22.597Z,99383.72
2018-07-07T16:06:53.249Z,99383.95
2018-07-07T16:09:24.193Z,99386.76
2018-07-07T16:11:54.899Z,99387.28
2018-07-07T16:14:25.741Z,99380.29
2018-07-07T16:16:56.478Z,99382.56
2018-07-07T16:19:27.289Z,99389.88
2018-07-07T16:21:58.014Z,99388.36
2018-07-07T16:24:28.782Z,99391.48
2018-07-07T16:26:59.558Z,99388.61
2018-07-07T16:29:30.450Z,99395.12
2018-07-07T16:32:01.158Z,99393.20
2018-07-07T16:34:32.192Z,99388.86
2018-07-07T16:37:02.891Z,99387.00
2018-07-07T16:39:33.317Z,99387.53
2018-07-07T16:42:03.938Z,99386.20
2018-07-07T16:44:34.921Z,99386.03
2018-07-07T16:47:05.484Z,99384.45
2018-07-07T16:49:36.317Z,99372.90
2018-07-07T16:52:07.253Z,99366.42
2018-07-07T16:54:38.754Z,99359.34
2018-07-07T16:57:09.844Z,99363.72
2018-07-07T16:59:41.017Z,99359.05
2018-07-07T17:02:11.801Z,99358.55
2018-07-07T17:04:42.741Z,99362.41
2018-07-07T17:07:13.530Z,99361.95
2018-07-07T17:09:43.960Z,99359.13
2018-07-07T17:12:14.841Z,99350.70
2018-07-07T17:14:45.649Z,99348.88
2018-07-07T17:17:16.562Z,99351.28
2018-07-07T17:19:47.123Z,99351.52
2018-07-07T17:22:17.726Z,99343.98
2018-07-07T17:24:48.373Z,99340.23
2018-07-07T17:27:18.540Z,99347.00
2018-07-07T17:29:49.510Z,99340.82
2018-07-07T17:32:19.715Z,99348.55
2018-07-07T17:34:50.476Z,99348.24
2018-07-07T17:37:21.514Z,99351.96
2018-07-07T17:39:51.873Z,99352.48
2018-07-07T17:42:22.697Z,99348.37
2018-07-07T17:44:54.026Z,99346.56
2018-07-07T17:47:24.269Z,99353.62
2018-07-07T17:49:54.907Z,99354.92
2018-07-07T17:52:25.470Z,99360.37
2018-07-07T17:54:56.361Z,99357.25
2018-07-07T17:57:27.186Z,99355.25
2018-07-07T17:59:58.277Z,99352.61
2018-07-07T18:02:28.925Z,99358.81
2018-07-07T18:04:59.913Z,99367.17
2018-07-07T18:07:30.204Z,99374.21
2018-07-07T18:10:01.046Z,99378.13
2018-07-07T18:12:31.357Z,99372.89
2018-07-07T18:15:02.270Z,99367.66
2018-07-07T18:17:32.974Z,99366.68
2018-07-07T18:20:04.030Z,99372.91
2018-07-07T18:22:34.782Z,99366.38
2018-07-07T18:25:05.550Z,99371.64
2018-07-07T18:27:35.713Z,99366.36
2018-07-07T18:30:06.669Z,99359.53
2018-07-07T18:32:37.358Z,99361.89
2018-07-07T18:35:08.225Z,99362.67
2018-07-07T18:37:38.998Z,99368.45
2018-07-07T18:40:09.329Z,99364.52
2018-07-07T18:42:40.030Z,99366.89
2018-07-07T18:45:10.763Z,99369.50
2018-07-07T18:47:41.317Z,99379.16
2018-07-07T18:50:12.036Z,99376.33
2018-07-07T18:52:42.809Z,99387.62
2018-07-07T18:55:13.065Z,99386.62
2018-07-07T18:57:43.710Z,99390.55
2018-07-07T19:00:14.350Z,99392.91
2018-07-07T19:02:44.898Z,99389.51
2018-07-07T19:05:15.657Z,99384.53
2018-07-07T19:07:46.773Z,99382.19
2018-07-07T19:10:17.438Z,99391.58
2018-07-07T19:12:48.153Z,99392.36
2018-07-07T19:15:22.076Z,99392.11
2018-07-07T19:17:53.313Z,99397.63
2018-07-07T19:20:28.390Z,99395.25
2018-07-07T19:23:03.607Z,99395.24
2018-07-07T19:28:20.889Z,99397.31
2018-07-07T19:30:51.526Z,99402.30
2018-07-07T19:33:27.129Z,99401.76
2018-07-07T19:36:02.626Z,99407.50
2018-07-07T19:38:33.517Z,99398.14
2018-07-07T19:41:04.281Z,99392.91
2018-07-07T19:43:35.190Z,99395.74
2018-07-07T19:46:05.950Z,99390.00
2018-07-07T19:48:36.541Z,99391.31
2018-07-07T19:51:07.238Z,99393.15
2018-07-07T19:53:38.033Z,99390.02
2018-07-07T19:56:08.685Z,99391.82
2018-07-07T19:58:39.673Z,99389.94
2018-07-07T20:01:10.451Z,99385.80
2018-07-07T20:03:41.429Z,99384.75
2018-07-07T20:06:12.222Z,99386.59
2018-07-07T20:08:43.070Z,99383.98
2018-07-07T20:11:13.730Z,99380.84
2018-07-07T20:13:44.475Z,99375.87
2018-07-07T20:16:17.460Z,99372.19
2018-07-07T20:19:13.239Z,99373.23
2018-07-07T20:21:51.429Z,99367.79
2018-07-07T20:24:23.805Z,99371.21
2018-07-07T20:26:59.581Z,99368.30
2018-07-07T20:29:30.561Z,99374.34
2018-07-07T20:32:01.028Z,99370.94
2018-07-07T20:34:32.379Z,99376.95
2018-07-07T20:37:03.110Z,99368.05
2018-07-07T20:39:33.813Z,99376.69
2018-07-07T20:42:05.738Z,99377.74
2018-07-07T20:44:36.546Z,99384.27
2018-07-07T20:47:07.505Z,99381.61
2018-07-07T20:49:38.369Z,99385.81
2018-07-07T20:52:08.621Z,99387.17
2018-07-07T20:54:39.325Z,99386.08
2018-07-07T20:57:10.008Z,99388.45
2018-07-07T20:59:40.911Z,99387.14
2018-07-07T21:02:11.510Z,99387.14
2018-07-07T21:04:42.184Z,99381.13
2018-07-07T21:07:12.853Z,99375.14
2018-07-07T21:09:43.506Z,99379.05
2018-07-07T21:12:13.709Z,99379.84
2018-07-07T21:14:44.911Z,99380.59
2018-07-07T21:17:15.635Z,99371.22
2018-07-07T21:19:46.453Z,99374.87
2018-07-07T21:22:17.138Z,99372.78
2018-07-07T21:24:47.876Z,99371.22
2018-07-07T21:27:18.369Z,99367.29
2018-07-07T21:29:49.097Z,99360.77
2018-07-07T21:32:19.821Z,99366.23
2018-07-07T21:34:50.654Z,99372.25
2018-07-07T21:37:20.993Z,99367.52
2018-07-07T21:39:51.777Z,99371.98
2018-07-07T21:42:22.329Z,99366.76
2018-07-07T21:44:53.112Z,99366.48
2018-07-07T21:47:23.581Z,99368.33
2018-07-07T21:49:54.393Z,99363.66
2018-07-07T21:52:24.861Z,99360.23
2018-07-07T21:54:55.718Z,99356.05
2018-07-07T21:57:31.314Z,99353.95
2018-07-07T22:00:02.169Z,99356.33
2018-07-07T22:02:37.360Z,99349.52
2018-07-07T22:05:13.222Z,99356.82
2018-07-07T22:07:43.822Z,99359.19
2018-07-07T22:10:14.494Z,99349.77
2018-07-07T22:12:45.091Z,99346.39
2018-07-07T22:15:15.773Z,99349.48
2018-07-07T22:17:46.250Z,99351.09
2018-07-07T22:20:37.702Z,99354.20
2018-07-07T22:23:08.466Z,99353.14
2018-07-07T22:25:38.565Z,99350.19
2018-07-07T22:28:09.335Z,99347.06
2018-07-07T22:30:40.102Z,99348.87
2018-07-07T22:33:15.713Z,99354.58
2018-07-07T22:35:51.342Z,99358.23
2018-07-07T22:38:26.827Z,99354.38
2018-07-07T22:40:57.785Z,99355.41
2018-07-07T22:43:28.769Z,99355.92
2018-07-07T22:46:01.151Z,99354.07
2018-07-07T22:48:31.260Z,99355.36
2018-07-07T22:51:02.013Z,99353.55
2018-07-07T22:53:32.922Z,99350.40
2018-07-07T22:56:03.532Z,99350.39
2018-07-07T22:58:34.354Z,99343.86
2018-07-07T23:01:04.932Z,99349.39
2018-07-07T23:03:35.265Z,99349.91
2018-07-07T23:06:05.914Z,99349.41
2018-07-07T23:08:36.702Z,99351.01
2018-07-07T23:11:07.574Z,99347.89
2018-07-07T23:13:37.776Z,99349.72
2018-07-07T23:16:08.054Z,99347.11
2018-07-07T23:18:38.941Z,99347.91
2018-07-07T23:21:09.201Z,99346.36
2018-07-07T23:23:39.941Z,99344.56
2018-07-07T23:26:10.629Z,99344.55
2018-07-07T23:28:41.782Z,99346.89
2018-07-07T23:31:12.374Z,99351.88
2018-07-07T23:33:43.018Z,99347.96
2018-07-07T23:36:13.665Z,99346.89
2018-07-07T23:38:44.901Z,99347.96
2018-07-07T23:41:15.638Z,99346.37
2018-07-07T23:43:46.576Z,99346.37
2018-07-07T23:46:17.181Z,99346.65
2018-07-07T23:48:48.115Z,99348.98
2018-07-07T23:51:18.813Z,99346.37
2018-07-07T23:53:49.722Z,99343.02
2018-07-07T23:56:19.949Z,99343.25
2018-07-07T23:58:50.021Z,99344.56
